sensor_id;sensor_type;location;lat;lon;timestamp;pressure;altitude;pressure_sealevel;temperature;humidity
58761;BME280;44529;47.464;19.014;2023-05-23T00:01:17;99953.59;;;16.15;97.68
58761;BME280;44529;47.464;19.014;2023-05-23T00:04:19;99956.59;;;16.10;98.09
58761;BME280;44529;47.464;19.014;2023-05-23T00:07:22;99955.00;;;16.09;98.18
58761;BME280;44529;47.464;19.014;2023-05-23T00:10:24;99953.44;;;16.08;98.18
58761;BME280;44529;47.464;19.014;2023-05-23T00:13:26;99950.53;;;16.01;98.82
58761;BME280;44529;47.464;19.014;2023-05-23T00:16:29;99948.97;;;16.00;98.60
58761;BME280;44529;47.464;19.014;2023-05-23T00:19:31;99954.00;;;15.97;98.96
58761;BME280;44529;47.464;19.014;2023-05-23T00:22:38;99945.81;;;15.97;99.65
58761;BME280;44529;47.464;19.014;2023-05-23T00:25:44;99948.09;;;15.95;99.39
58761;BME280;44529;47.464;19.014;2023-05-23T00:28:49;99951.38;;;15.85;100.00
58761;BME280;44529;47.464;19.014;2023-05-23T00:31:51;99951.38;;;15.85;100.00
58761;BME280;44529;47.464;19.014;2023-05-23T00:34:54;99942.72;;;15.83;99.52
58761;BME280;44529;47.464;19.014;2023-05-23T00:37:59;99944.88;;;15.74;100.00
58761;BME280;44529;47.464;19.014;2023-05-23T00:41:03;99944.12;;;15.61;100.00
58761;BME280;44529;47.464;19.014;2023-05-23T00:44:06;99945.56;;;15.71;100.00
58761;BME280;44529;47.464;19.014;2023-05-23T00:47:12;99949.91;;;15.72;100.00
58761;BME280;44529;47.464;19.014;2023-05-23T00:50:14;99943.19;;;15.69;99.81
58761;BME280;44529;47.464;19.014;2023-05-23T00:53:17;99952.88;;;15.67;99.23
58761;BME280;44529;47.464;19.014;2023-05-23T00:56:19;99950.06;;;15.63;99.66
58761;BME280;44529;47.464;19.014;2023-05-23T00:59:24;99951.78;;;15.56;100.00
58761;BME280;44529;47.464;19.014;2023-05-23T01:02:27;99949.50;;;15.58;100.00
58761;BME280;44529;47.464;19.014;2023-05-23T01:05:30;99948.53;;;15.50;100.00
58761;BME280;44529;47.464;19.014;2023-05-23T01:08:32;99953.81;;;15.43;100.00
58761;BME280;44529;47.464;19.014;2023-05-23T01:11:42;99948.72;;;15.41;100.00
58761;BME280;44529;47.464;19.014;2023-05-23T01:14:57;99946.69;;;15.38;100.00
58761;BME280;44529;47.464;19.014;2023-05-23T01:18:06;99944.50;;;15.28;100.00
58761;BME280;44529;47.464;19.014;2023-05-23T01:21:18;99942.91;;;15.27;100.00
58761;BME280;44529;47.464;19.014;2023-05-23T01:27:56;99933.50;;;15.25;100.00
58761;BME280;44529;47.464;19.014;2023-05-23T01:31:03;99935.97;;;15.14;100.00
58761;BME280;44529;47.464;19.014;2023-05-23T01:34:08;99936.12;;;15.21;100.00
58761;BME280;44529;47.464;19.014;2023-05-23T01:37:11;99932.53;;;15.17;100.00
58761;BME280;44529;47.464;19.014;2023-05-23T01:40:15;99937.34;;;15.24;100.00
58761;BME280;44529;47.464;19.014;2023-05-23T01:43:18;99927.78;;;15.14;100.00
58761;BME280;44529;47.464;19.014;2023-05-23T01:46:22;99926.00;;;15.06;100.00
58761;BME280;44529;47.464;19.014;2023-05-23T01:49:28;99924.41;;;15.05;100.00
58761;BME280;44529;47.464;19.014;2023-05-23T01:52:32;99929.88;;;15.05;100.00
58761;BME280;44529;47.464;19.014;2023-05-23T01:55:35;99923.56;;;15.01;100.00
58761;BME280;44529;47.464;19.014;2023-05-23T01:58:38;99924.34;;;15.01;100.00
58761;BME280;44529;47.464;19.014;2023-05-23T02:01:40;99929.88;;;15.05;100.00
58761;BME280;44529;47.464;19.014;2023-05-23T02:04:43;99922.13;;;15.07;100.00
58761;BME280;44529;47.464;19.014;2023-05-23T02:07:45;99914.38;;;14.93;100.00
58761;BME280;44529;47.464;19.014;2023-05-23T02:10:48;99919.16;;;14.96;100.00
58761;BME280;44529;47.464;19.014;2023-05-23T02:13:50;99914.06;;;14.95;100.00
58761;BME280;44529;47.464;19.014;2023-05-23T02:16:52;99912.38;;;14.90;100.00
58761;BME280;44529;47.464;19.014;2023-05-23T02:19:55;99919.63;;;14.86;100.00
58761;BME280;44529;47.464;19.014;2023-05-23T02:22:58;99916.72;;;14.79;100.00
58761;BME280;44529;47.464;19.014;2023-05-23T02:26:01;99913.69;;;14.68;100.00
58761;BME280;44529;47.464;19.014;2023-05-23T02:29:03;99915.31;;;14.69;100.00
58761;BME280;44529;47.464;19.014;2023-05-23T02:32:06;99913.69;;;14.68;100.00
58761;BME280;44529;47.464;19.014;2023-05-23T02:35:08;99921.19;;;14.71;100.00
58761;BME280;44529;47.464;19.014;2023-05-23T02:38:11;99917.31;;;14.72;100.00
58761;BME280;44529;47.464;19.014;2023-05-23T02:41:14;99918.91;;;14.73;100.00
58761;BME280;44529;47.464;19.014;2023-05-23T02:44:17;99916.00;;;14.66;100.00
58761;BME280;44529;47.464;19.014;2023-05-23T02:47:20;99912.41;;;14.62;100.00
58761;BME280;44529;47.464;19.014;2023-05-23T02:50:23;99914.44;;;14.53;100.00
58761;BME280;44529;47.464;19.014;2023-05-23T02:53:25;99915.94;;;14.50;100.00
58761;BME280;44529;47.464;19.014;2023-05-23T02:56:28;99916.03;;;14.54;100.00
58761;BME280;44529;47.464;19.014;2023-05-23T02:59:31;99917.41;;;14.48;100.00
58761;BME280;44529;47.464;19.014;2023-05-23T03:02:33;99918.56;;;14.47;100.00
58761;BME280;44529;47.464;19.014;2023-05-23T03:05:36;99918.09;;;14.45;100.00
58761;BME280;44529;47.464;19.014;2023-05-23T03:08:41;99915.16;;;14.50;100.00
58761;BME280;44529;47.464;19.014;2023-05-23T03:11:45;99905.62;;;14.44;100.00
58761;BME280;44529;47.464;19.014;2023-05-23T03:14:47;99902.56;;;14.45;100.00
58761;BME280;44529;47.464;19.014;2023-05-23T03:17:49;99903.50;;;14.37;100.00
58761;BME280;44529;47.464;19.014;2023-05-23T03:20:52;99913.66;;;14.40;100.00
58761;BME280;44529;47.464;19.014;2023-05-23T03:23:56;99920.25;;;14.39;100.00
58761;BME280;44529;47.464;19.014;2023-05-23T03:26:58;99914.25;;;14.33;100.00
58761;BME280;44529;47.464;19.014;2023-05-23T03:30:03;99912.78;;;14.36;100.00
58761;BME280;44529;47.464;19.014;2023-05-23T03:33:05;99916.63;;;14.35;100.00
58761;BME280;44529;47.464;19.014;2023-05-23T03:36:08;99918.31;;;14.40;100.00
58761;BME280;44529;47.464;19.014;2023-05-23T03:39:10;99906.41;;;14.44;100.00
58761;BME280;44529;47.464;19.014;2023-05-23T03:42:13;99911.75;;;14.41;100.00
58761;BME280;44529;47.464;19.014;2023-05-23T03:45:15;99905.62;;;14.44;100.00
58761;BME280;44529;47.464;19.014;2023-05-23T03:48:19;99905.62;;;14.44;100.00
58761;BME280;44529;47.464;19.014;2023-05-23T03:51:22;99905.50;;;14.40;100.00
58761;BME280;44529;47.464;19.014;2023-05-23T03:54:25;99910.41;;;14.47;100.00
58761;BME280;44529;47.464;19.014;2023-05-23T03:57:27;99908.09;;;14.49;100.00
58761;BME280;44529;47.464;19.014;2023-05-23T04:00:30;99913.12;;;14.47;100.00
58761;BME280;44529;47.464;19.014;2023-05-23T04:03:33;99908.34;;;14.44;100.00
58761;BME280;44529;47.464;19.014;2023-05-23T04:06:35;99912.66;;;14.45;100.00
58761;BME280;44529;47.464;19.014;2023-05-23T04:09:38;99911.19;;;14.47;100.00
58761;BME280;44529;47.464;19.014;2023-05-23T04:12:41;99914.22;;;14.46;100.00
58761;BME280;44529;47.464;19.014;2023-05-23T04:15:47;99912.44;;;14.50;100.00
58761;BME280;44529;47.464;19.014;2023-05-23T04:18:49;99919.91;;;14.53;100.00
58761;BME280;44529;47.464;19.014;2023-05-23T04:21:53;99914.56;;;14.56;100.00
58761;BME280;44529;47.464;19.014;2023-05-23T04:24:55;99913.06;;;14.59;100.00
58761;BME280;44529;47.464;19.014;2023-05-23T04:27:59;99912.41;;;14.62;100.00
58761;BME280;44529;47.464;19.014;2023-05-23T04:31:02;99914.84;;;14.67;100.00
58761;BME280;44529;47.464;19.014;2023-05-23T04:34:05;99908.72;;;14.70;100.00
58761;BME280;44529;47.464;19.014;2023-05-23T04:37:10;99910.31;;;14.71;100.00
58761;BME280;44529;47.464;19.014;2023-05-23T04:40:13;99908.47;;;14.75;100.00
58761;BME280;44529;47.464;19.014;2023-05-23T04:43:17;99917.09;;;14.77;100.00
58761;BME280;44529;47.464;19.014;2023-05-23T04:46:21;99911.63;;;14.77;100.00
58761;BME280;44529;47.464;19.014;2023-05-23T04:49:28;99917.63;;;14.83;100.00
58761;BME280;44529;47.464;19.014;2023-05-23T04:52:30;99919.63;;;14.86;100.00
58761;BME280;44529;47.464;19.014;2023-05-23T04:55:35;99915.88;;;14.90;100.00
58761;BME280;44529;47.464;19.014;2023-05-23T04:58:39;99916.31;;;14.93;100.00
58761;BME280;44529;47.464;19.014;2023-05-23T05:01:43;99918.09;;;15.01;100.00
58761;BME280;44529;47.464;19.014;2023-05-23T05:04:46;99918.97;;;15.05;100.00
58761;BME280;44529;47.464;19.014;2023-05-23T05:07:49;99919.88;;;15.09;100.00
58761;BME280;44529;47.464;19.014;2023-05-23T05:10:53;99920.06;;;15.16;100.00
58761;BME280;44529;47.464;19.014;2023-05-23T05:13:56;99918.22;;;15.20;100.00
58761;BME280;44529;47.464;19.014;2023-05-23T05:16:58;99915.66;;;15.27;100.00
58761;BME280;44529;47.464;19.014;2023-05-23T05:20:03;99918.81;;;15.29;100.00
58761;BME280;44529;47.464;19.014;2023-05-23T05:23:10;99919.00;;;15.36;100.00
58761;BME280;44529;47.464;19.014;2023-05-23T05:26:12;99914.44;;;15.40;100.00
58761;BME280;44529;47.464;19.014;2023-05-23T05:29:15;99912.31;;;15.50;100.00
58761;BME280;44529;47.464;19.014;2023-05-23T05:32:17;99915.22;;;15.57;100.00
58761;BME280;44529;47.464;19.014;2023-05-23T05:35:20;99922.00;;;15.63;100.00
58761;BME280;44529;47.464;19.014;2023-05-23T05:38:23;99922.91;;;15.67;100.00
58761;BME280;44529;47.464;19.014;2023-05-23T05:41:25;99916.03;;;15.73;100.00
58761;BME280;44529;47.464;19.014;2023-05-23T05:44:28;99914.63;;;15.79;100.00
58761;BME280;44529;47.464;19.014;2023-05-23T05:47:31;99911.41;;;15.93;100.00
58761;BME280;44529;47.464;19.014;2023-05-23T05:50:34;99912.78;;;16.03;100.00
58761;BME280;44529;47.464;19.014;2023-05-23T05:53:37;99913.41;;;16.12;100.00
58761;BME280;44529;47.464;19.014;2023-05-23T05:56:39;99909.41;;;16.25;100.00
58761;BME280;44529;47.464;19.014;2023-05-23T05:59:44;99913.16;;;16.36;100.00
58761;BME280;44529;47.464;19.014;2023-05-23T06:02:46;99917.22;;;16.46;97.29
58761;BME280;44529;47.464;19.014;2023-05-23T06:05:50;99913.34;;;16.66;91.98
58761;BME280;44529;47.464;19.014;2023-05-23T06:08:52;99905.41;;;16.77;96.64
58761;BME280;44529;47.464;19.014;2023-05-23T06:11:55;99902.72;;;16.81;95.69
58761;BME280;44529;47.464;19.014;2023-05-23T06:14:57;99902.78;;;16.84;95.75
58761;BME280;44529;47.464;19.014;2023-05-23T06:18:00;99908.34;;;16.88;96.09
58761;BME280;44529;47.464;19.014;2023-05-23T06:21:03;99909.25;;;16.95;95.91
58761;BME280;44529;47.464;19.014;2023-05-23T06:24:07;99909.00;;;17.04;95.08
58761;BME280;44529;47.464;19.014;2023-05-23T06:27:09;99912.66;;;17.12;94.61
58761;BME280;44529;47.464;19.014;2023-05-23T06:30:13;99904.56;;;17.19;94.60
58761;BME280;44529;47.464;19.014;2023-05-23T06:33:15;99910.53;;;17.24;94.46
58761;BME280;44529;47.464;19.014;2023-05-23T06:36:18;99902.91;;;17.33;94.23
58761;BME280;44529;47.464;19.014;2023-05-23T06:39:22;99906.94;;;17.43;93.19
58761;BME280;44529;47.464;19.014;2023-05-23T06:42:25;99910.22;;;17.52;92.45
58761;BME280;44529;47.464;19.014;2023-05-23T06:45:28;99901.37;;;17.63;92.14
58761;BME280;44529;47.464;19.014;2023-05-23T06:48:31;99909.00;;;17.73;91.60
58761;BME280;44529;47.464;19.014;2023-05-23T06:51:33;99907.59;;;17.82;90.47
58761;BME280;44529;47.464;19.014;2023-05-23T06:54:36;99902.69;;;17.95;89.46
58761;BME280;44529;47.464;19.014;2023-05-23T06:57:38;99905.59;;;18.09;88.04
58761;BME280;44529;47.464;19.014;2023-05-23T07:00:41;99899.91;;;18.22;86.85
58761;BME280;44529;47.464;19.014;2023-05-23T07:03:44;99894.22;;;18.34;88.70
58761;BME280;44529;47.464;19.014;2023-05-23T07:06:47;99892.41;;;18.45;87.00
58761;BME280;44529;47.464;19.014;2023-05-23T07:09:49;99897.69;;;18.64;86.69
58761;BME280;44529;47.464;19.014;2023-05-23T07:12:53;99893.25;;;18.86;85.58
58761;BME280;44529;47.464;19.014;2023-05-23T07:15:55;99895.50;;;19.14;85.82
58761;BME280;44529;47.464;19.014;2023-05-23T07:19:00;99889.47;;;19.42;82.08
58761;BME280;44529;47.464;19.014;2023-05-23T07:22:04;99885.81;;;19.75;81.28
58761;BME280;44529;47.464;19.014;2023-05-23T07:25:08;99891.91;;;20.10;79.29
58761;BME280;44529;47.464;19.014;2023-05-23T07:28:10;99888.16;;;20.43;77.22
58761;BME280;44529;47.464;19.014;2023-05-23T07:31:13;99888.66;;;20.73;77.96
58761;BME280;44529;47.464;19.014;2023-05-23T07:34:16;99888.72;;;21.02;74.41
58761;BME280;44529;47.464;19.014;2023-05-23T07:37:20;99887.16;;;21.15;73.56
58761;BME280;44529;47.464;19.014;2023-05-23T07:40:22;99886.78;;;21.42;73.12
58761;BME280;44529;47.464;19.014;2023-05-23T07:43:25;99888.38;;;21.64;67.25
58761;BME280;44529;47.464;19.014;2023-05-23T07:46:27;99874.13;;;21.94;68.09
58761;BME280;44529;47.464;19.014;2023-05-23T07:49:30;99881.56;;;22.08;68.92
58761;BME280;44529;47.464;19.014;2023-05-23T07:52:33;99884.25;;;22.36;68.66
58761;BME280;44529;47.464;19.014;2023-05-23T07:55:37;99884.91;;;22.65;66.29
58761;BME280;44529;47.464;19.014;2023-05-23T07:58:40;99881.97;;;22.97;65.10
58761;BME280;44529;47.464;19.014;2023-05-23T08:01:42;99880.66;;;23.16;64.64
58761;BME280;44529;47.464;19.014;2023-05-23T08:04:47;99869.78;;;23.43;62.02
58761;BME280;44529;47.464;19.014;2023-05-23T08:07:49;99879.13;;;23.57;62.36
58761;BME280;44529;47.464;19.014;2023-05-23T08:10:54;99876.94;;;23.82;61.69
58761;BME280;44529;47.464;19.014;2023-05-23T08:13:58;99865.38;;;23.94;58.53
58761;BME280;44529;47.464;19.014;2023-05-23T08:17:04;99865.84;;;24.23;59.29
58761;BME280;44529;47.464;19.014;2023-05-23T08:20:07;99867.47;;;24.51;57.04
58761;BME280;44529;47.464;19.014;2023-05-23T08:23:11;99869.47;;;24.78;55.84
58761;BME280;44529;47.464;19.014;2023-05-23T08:26:15;99869.44;;;25.08;56.56
58761;BME280;44529;47.464;19.014;2023-05-23T08:29:17;99874.62;;;25.53;56.36
58761;BME280;44529;47.464;19.014;2023-05-23T08:32:20;99869.47;;;25.79;55.01
58761;BME280;44529;47.464;19.014;2023-05-23T08:35:23;99871.97;;;26.13;50.76
58761;BME280;44529;47.464;19.014;2023-05-23T08:38:25;99873.75;;;26.43;48.83
58761;BME280;44529;47.464;19.014;2023-05-23T08:41:30;99864.63;;;26.62;50.95
58761;BME280;44529;47.464;19.014;2023-05-23T08:44:34;99867.44;;;26.95;50.64
58761;BME280;44529;47.464;19.014;2023-05-23T08:47:38;99868.06;;;27.03;51.53
58761;BME280;44529;47.464;19.014;2023-05-23T08:50:46;99862.78;;;27.41;49.27
58761;BME280;44529;47.464;19.014;2023-05-23T08:53:50;99863.81;;;27.63;49.71
58761;BME280;44529;47.464;19.014;2023-05-23T08:56:56;99860.03;;;27.86;48.50
58761;BME280;44529;47.464;19.014;2023-05-23T08:59:59;99866.53;;;28.38;47.55
58761;BME280;44529;47.464;19.014;2023-05-23T09:03:03;99862.44;;;28.42;48.04
58761;BME280;44529;47.464;19.014;2023-05-23T09:06:11;99871.03;;;28.60;47.19
58761;BME280;44529;47.464;19.014;2023-05-23T09:09:14;99869.13;;;28.83;45.13
58761;BME280;44529;47.464;19.014;2023-05-23T09:12:17;99869.59;;;28.94;46.56
58761;BME280;44529;47.464;19.014;2023-05-23T09:15:23;99874.69;;;29.34;44.74
58761;BME280;44529;47.464;19.014;2023-05-23T09:18:40;99870.13;;;29.27;44.56
58761;BME280;44529;47.464;19.014;2023-05-23T09:21:44;99864.56;;;29.27;45.39
58761;BME280;44529;47.464;19.014;2023-05-23T09:24:49;99864.66;;;29.24;44.23
58761;BME280;44529;47.464;19.014;2023-05-23T09:27:53;99862.56;;;28.90;46.58
58761;BME280;44529;47.464;19.014;2023-05-23T09:34:02;99862.25;;;29.13;45.25
58761;BME280;44529;47.464;19.014;2023-05-23T09:37:05;99858.91;;;28.80;44.53
58761;BME280;44529;47.464;19.014;2023-05-23T09:40:09;99860.69;;;28.86;44.66
58761;BME280;44529;47.464;19.014;2023-05-23T09:43:16;99858.13;;;28.79;46.34
58761;BME280;44529;47.464;19.014;2023-05-23T09:46:19;99854.56;;;28.92;45.79
58761;BME280;44529;47.464;19.014;2023-05-23T09:49:22;99861.22;;;29.20;43.66
58761;BME280;44529;47.464;19.014;2023-05-23T09:52:24;99857.31;;;29.17;44.12
58761;BME280;44529;47.464;19.014;2023-05-23T09:55:27;99860.09;;;29.17;44.57
58761;BME280;44529;47.464;19.014;2023-05-23T09:58:31;99856.66;;;29.26;44.36
58761;BME280;44529;47.464;19.014;2023-05-23T10:01:34;99855.75;;;28.52;42.99
58761;BME280;44529;47.464;19.014;2023-05-23T10:04:38;99854.75;;;27.75;46.95
58761;BME280;44529;47.464;19.014;2023-05-23T10:07:44;99855.50;;;27.31;48.34
58761;BME280;44529;47.464;19.014;2023-05-23T10:14:01;99848.66;;;28.10;47.59
58761;BME280;44529;47.464;19.014;2023-05-23T10:17:07;99842.22;;;28.25;47.70
58761;BME280;44529;47.464;19.014;2023-05-23T10:20:15;99849.41;;;28.52;46.41
58761;BME280;44529;47.464;19.014;2023-05-23T10:23:19;99841.53;;;28.63;44.75
58761;BME280;44529;47.464;19.014;2023-05-23T10:26:22;99829.94;;;28.77;46.08
58761;BME280;44529;47.464;19.014;2023-05-23T10:29:25;99830.06;;;28.86;45.02
58761;BME280;44529;47.464;19.014;2023-05-23T10:32:28;99825.91;;;28.91;45.91
58761;BME280;44529;47.464;19.014;2023-05-23T10:35:49;99824.50;;;29.12;44.40
58761;BME280;44529;47.464;19.014;2023-05-23T10:39:06;99825.81;;;28.82;45.32
58761;BME280;44529;47.464;19.014;2023-05-23T10:42:16;99825.06;;;28.94;44.26
58761;BME280;44529;47.464;19.014;2023-05-23T10:45:21;99821.13;;;29.17;45.02
58761;BME280;44529;47.464;19.014;2023-05-23T10:51:37;99821.78;;;29.21;45.66
58761;BME280;44529;47.464;19.014;2023-05-23T10:54:49;99814.16;;;29.34;45.18
58761;BME280;44529;47.464;19.014;2023-05-23T10:58:17;99811.13;;;28.81;47.26
58761;BME280;44529;47.464;19.014;2023-05-23T11:01:21;99810.03;;;28.66;44.95
58761;BME280;44529;47.464;19.014;2023-05-23T11:04:25;99811.09;;;28.30;46.85
58761;BME280;44529;47.464;19.014;2023-05-23T11:07:32;99799.19;;;27.75;44.89
58761;BME280;44529;47.464;19.014;2023-05-23T11:11:00;99799.09;;;27.63;47.20
58761;BME280;44529;47.464;19.014;2023-05-23T11:14:02;99789.31;;;27.87;43.49
58761;BME280;44529;47.464;19.014;2023-05-23T11:20:13;99780.81;;;28.07;43.40
58761;BME280;44529;47.464;19.014;2023-05-23T11:23:17;99784.94;;;28.15;42.83
58761;BME280;44529;47.464;19.014;2023-05-23T11:26:30;99784.47;;;28.04;43.66
58761;BME280;44529;47.464;19.014;2023-05-23T11:29:33;99779.97;;;27.81;45.67
58761;BME280;44529;47.464;19.014;2023-05-23T11:32:36;99766.31;;;27.29;46.27
58761;BME280;44529;47.464;19.014;2023-05-23T11:35:46;99778.81;;;26.88;49.43
58761;BME280;44529;47.464;19.014;2023-05-23T11:38:51;99763.72;;;26.72;49.33
58761;BME280;44529;47.464;19.014;2023-05-23T11:42:03;99766.84;;;26.42;50.99
58761;BME280;44529;47.464;19.014;2023-05-23T11:45:08;99767.53;;;26.10;51.67
58761;BME280;44529;47.464;19.014;2023-05-23T11:48:11;99765.69;;;26.03;52.32
58761;BME280;44529;47.464;19.014;2023-05-23T11:51:14;99762.28;;;25.76;54.05
58761;BME280;44529;47.464;19.014;2023-05-23T11:54:22;99752.75;;;25.97;54.78
58761;BME280;44529;47.464;19.014;2023-05-23T11:57:25;99747.13;;;26.36;51.78
58761;BME280;44529;47.464;19.014;2023-05-23T12:00:28;99747.25;;;26.65;50.26
58761;BME280;44529;47.464;19.014;2023-05-23T12:03:31;99739.19;;;26.87;48.88
58761;BME280;44529;47.464;19.014;2023-05-23T12:06:38;99725.47;;;26.96;49.13
58761;BME280;44529;47.464;19.014;2023-05-23T12:09:45;99722.47;;;27.07;48.26
58761;BME280;44529;47.464;19.014;2023-05-23T12:12:47;99710.28;;;27.17;48.62
58761;BME280;44529;47.464;19.014;2023-05-23T12:15:56;99714.09;;;27.23;47.17
58761;BME280;44529;47.464;19.014;2023-05-23T12:19:02;99704.00;;;27.30;47.96
58761;BME280;44529;47.464;19.014;2023-05-23T12:22:05;99702.78;;;27.31;47.01
58761;BME280;44529;47.464;19.014;2023-05-23T12:25:09;99699.62;;;27.45;46.45
58761;BME280;44529;47.464;19.014;2023-05-23T12:28:12;99693.75;;;27.56;45.76
58761;BME280;44529;47.464;19.014;2023-05-23T12:31:17;99690.31;;;27.51;44.34
58761;BME280;44529;47.464;19.014;2023-05-23T12:34:20;99683.06;;;27.41;45.70
58761;BME280;44529;47.464;19.014;2023-05-23T12:37:22;99683.00;;;27.29;45.91
58761;BME280;44529;47.464;19.014;2023-05-23T12:40:25;99673.56;;;27.26;45.80
58761;BME280;44529;47.464;19.014;2023-05-23T12:43:29;99674.34;;;27.26;45.63
58761;BME280;44529;47.464;19.014;2023-05-23T12:46:32;99672.69;;;27.29;47.80
58761;BME280;44529;47.464;19.014;2023-05-23T12:49:38;99672.59;;;27.33;46.91
58761;BME280;44529;47.464;19.014;2023-05-23T12:52:43;99677.28;;;27.07;47.06
58761;BME280;44529;47.464;19.014;2023-05-23T12:55:45;99664.81;;;26.82;45.84
58761;BME280;44529;47.464;19.014;2023-05-23T12:58:48;99666.03;;;26.81;47.92
58761;BME280;44529;47.464;19.014;2023-05-23T13:01:50;99664.34;;;27.00;47.25
58761;BME280;44529;47.464;19.014;2023-05-23T13:04:53;99655.12;;;27.19;47.32
58761;BME280;44529;47.464;19.014;2023-05-23T13:07:55;99662.69;;;27.03;47.94
58761;BME280;44529;47.464;19.014;2023-05-23T13:11:00;99648.25;;;26.79;47.28
58761;BME280;44529;47.464;19.014;2023-05-23T13:14:03;99635.44;;;26.68;47.10
58761;BME280;44529;47.464;19.014;2023-05-23T13:17:05;99636.03;;;26.76;44.50
58761;BME280;44529;47.464;19.014;2023-05-23T13:20:09;99636.09;;;27.05;45.95
58761;BME280;44529;47.464;19.014;2023-05-23T13:23:12;99635.03;;;26.99;45.28
58761;BME280;44529;47.464;19.014;2023-05-23T13:26:15;99639.91;;;26.95;47.83
58761;BME280;44529;47.464;19.014;2023-05-23T13:29:17;99640.22;;;27.13;46.39
58761;BME280;44529;47.464;19.014;2023-05-23T13:32:20;99645.25;;;27.18;46.17
58761;BME280;44529;47.464;19.014;2023-05-23T13:35:26;99635.78;;;27.16;45.24
58761;BME280;44529;47.464;19.014;2023-05-23T13:38:28;99643.13;;;27.22;44.72
58761;BME280;44529;47.464;19.014;2023-05-23T13:41:34;99626.63;;;27.32;44.90
58761;BME280;44529;47.464;19.014;2023-05-23T13:44:36;99638.56;;;27.16;44.75
58761;BME280;44529;47.464;19.014;2023-05-23T13:47:38;99634.09;;;27.06;48.21
58761;BME280;44529;47.464;19.014;2023-05-23T13:50:41;99637.44;;;27.13;46.30
58761;BME280;44529;47.464;19.014;2023-05-23T13:53:45;99634.87;;;27.06;45.51
58761;BME280;44529;47.464;19.014;2023-05-23T13:56:47;99638.91;;;27.18;44.62
58761;BME280;44529;47.464;19.014;2023-05-23T13:59:49;99637.31;;;27.17;45.31
58761;BME280;44529;47.464;19.014;2023-05-23T14:02:51;99629.56;;;27.12;44.73
58761;BME280;44529;47.464;19.014;2023-05-23T14:05:54;99633.25;;;27.21;45.04
58761;BME280;44529;47.464;19.014;2023-05-23T14:08:56;99633.34;;;27.18;44.14
58761;BME280;44529;47.464;19.014;2023-05-23T14:11:59;99627.81;;;27.18;44.67
58761;BME280;44529;47.464;19.014;2023-05-23T14:15:01;99618.66;;;27.17;43.15
58761;BME280;44529;47.464;19.014;2023-05-23T14:18:04;99622.13;;;27.21;42.83
58761;BME280;44529;47.464;19.014;2023-05-23T14:21:07;99624.72;;;27.29;41.04
58761;BME280;44529;47.464;19.014;2023-05-23T14:24:10;99605.59;;;27.31;42.85
58761;BME280;44529;47.464;19.014;2023-05-23T14:27:12;99602.94;;;27.27;41.97
58761;BME280;44529;47.464;19.014;2023-05-23T14:30:16;99593.59;;;27.21;40.93
58761;BME280;44529;47.464;19.014;2023-05-23T14:33:18;99595.94;;;27.22;40.78
58761;BME280;44529;47.464;19.014;2023-05-23T14:36:20;99593.94;;;27.23;41.36
58761;BME280;44529;47.464;19.014;2023-05-23T14:39:23;99607.72;;;27.26;41.96
58761;BME280;44529;47.464;19.014;2023-05-23T14:42:26;99596.28;;;27.24;39.07
58761;BME280;44529;47.464;19.014;2023-05-23T14:45:29;99608.69;;;27.20;39.39
58761;BME280;44529;47.464;19.014;2023-05-23T14:48:32;99612.37;;;27.00;39.39
58761;BME280;44529;47.464;19.014;2023-05-23T14:51:35;99603.03;;;26.94;40.50
58761;BME280;44529;47.464;19.014;2023-05-23T14:54:51;99598.22;;;26.82;41.33
58761;BME280;44529;47.464;19.014;2023-05-23T14:57:53;99596.03;;;26.61;42.68
58761;BME280;44529;47.464;19.014;2023-05-23T15:00:56;99599.59;;;26.45;44.44
58761;BME280;44529;47.464;19.014;2023-05-23T15:03:58;99599.22;;;26.27;44.66
58761;BME280;44529;47.464;19.014;2023-05-23T15:07:01;99596.19;;;26.37;45.32
58761;BME280;44529;47.464;19.014;2023-05-23T15:10:05;99606.38;;;26.44;44.49
58761;BME280;44529;47.464;19.014;2023-05-23T15:13:07;99600.69;;;26.64;45.52
58761;BME280;44529;47.464;19.014;2023-05-23T15:16:12;99607.91;;;26.61;46.28
58761;BME280;44529;47.464;19.014;2023-05-23T15:19:18;99603.47;;;26.64;43.96
58761;BME280;44529;47.464;19.014;2023-05-23T15:22:20;99604.09;;;26.55;44.95
58761;BME280;44529;47.464;19.014;2023-05-23T15:25:40;99600.28;;;26.49;42.08
58761;BME280;44529;47.464;19.014;2023-05-23T15:28:45;99601.41;;;26.52;41.26
58761;BME280;44529;47.464;19.014;2023-05-23T15:31:48;99600.97;;;26.37;41.65
58761;BME280;44529;47.464;19.014;2023-05-23T15:34:50;99609.22;;;26.40;42.04
58761;BME280;44529;47.464;19.014;2023-05-23T15:37:53;99610.25;;;26.30;42.75
58761;BME280;44529;47.464;19.014;2023-05-23T15:40:55;99607.53;;;26.27;42.73
58761;BME280;44529;47.464;19.014;2023-05-23T15:44:00;99601.06;;;26.17;44.21
58761;BME280;44529;47.464;19.014;2023-05-23T15:47:03;99601.84;;;26.01;45.13
58761;BME280;44529;47.464;19.014;2023-05-23T15:50:06;99607.13;;;25.96;44.45
58761;BME280;44529;47.464;19.014;2023-05-23T15:53:08;99603.22;;;25.93;45.31
58761;BME280;44529;47.464;19.014;2023-05-23T15:56:11;99589.19;;;25.84;44.69
58761;BME280;44529;47.464;19.014;2023-05-23T15:59:13;99592.53;;;25.75;44.20
58761;BME280;44529;47.464;19.014;2023-05-23T16:02:16;99594.53;;;25.75;45.13
58761;BME280;44529;47.464;19.014;2023-05-23T16:05:20;99589.06;;;25.71;44.46
58761;BME280;44529;47.464;19.014;2023-05-23T16:08:22;99592.06;;;25.60;46.16
58761;BME280;44529;47.464;19.014;2023-05-23T16:11:25;99582.03;;;25.66;42.53
58761;BME280;44529;47.464;19.014;2023-05-23T16:14:29;99598.38;;;25.61;41.55